ADDS METAR Data INFO
IDs: Format: Raw Decoded Include TAF

Data at: 0213 UTC 17 Aug 2018

PAKI 170156Z AUTO 21003KT 10SM CLR 12/06 A3001 RMK AO2 SLP164 T01220061 PNO $
PAKI 170056Z AUTO 21005KT 10SM CLR 12/06 A3001 RMK AO2 SLP164 T01220061 PNO $
PAKI 162356Z AUTO 18005KT 10SM CLR 12/06 A3002 RMK AO2 SLP166 6//// T01220061 10128 20100 50001 PNO $
PAKI 162256Z AUTO 17007KT 10SM FEW025 12/07 A3002 RMK AO2 SLP166 T01220067 PNO $
PAKI 162156Z AUTO 17006KT 10SM FEW024 12/06 A3001 RMK AO2 SLP165 T01220061 PNO $
PAKI 162056Z AUTO 14008KT 10SM FEW026 12/06 A3001 RMK AO2 SLP164 6//// T01170056 53004 PNO $
PAKI 162040Z AUTO 15008KT 10SM SCT024 11/06 A3001 RMK AO2 PNO $
PAKI 161956Z AUTO 15007KT 10SM BKN026 11/06 A3001 RMK AO2 SLP163 T01110061 PNO $
PAKI 161928Z AUTO 15008KT 10SM BKN028 BKN032 11/06 A3001 RMK AO2 PNO $
PAKI 161856Z AUTO 14007KT 10SM SCT022 11/06 A3000 RMK AO2 SLP162 T01110061 PNO $
PAKI 161756Z AUTO 13007KT 10SM CLR 10/08 A3000 RMK AO2 SLP160 6//// T01000078 10100 20072 51006 PNO $
PAKI 161656Z AUTO 07005KT 10SM FEW025 09/08 A2999 RMK AO2 SLP158 T00890078 PNO $
PAKI 161556Z AUTO 04005KT 10SM FEW040 07/07 A2999 RMK AO2 SLP156 T00720067 PNO $
PAKI 161456Z AUTO 06005KT 10SM OVC044 08/07 A2998 RMK AO2 SLP154 6//// T00830072 58001 PNO $
PAKI 161356Z AUTO 06004KT 10SM OVC046 08/07 A2998 RMK AO2 SLP155 T00830072 PNO $
PAKI 161256Z AUTO 08005KT 10SM FEW048 BKN060 07/07 A2998 RMK AO2 SLP155 T00720067 PNO $
PAKI 161156Z AUTO 09004KT 10SM CLR 07/06 A2998 RMK AO2 SLP155 6//// 7//// T00720061 10106 20072 51006 PNO $
PAKI 161056Z AUTO 08005KT 10SM SCT043 08/07 A2998 RMK AO2 SLP153 T00780067 PNO $
PAKI 160956Z AUTO 04004KT 10SM BKN055 08/07 A2997 RMK AO2 SLP151 T00780072 PNO $
PAKI 160856Z AUTO 05003KT 10SM CLR 08/07 A2997 RMK AO2 SLP149 6//// T00830072 401220078 52010 PNO $
PAKI 160756Z AUTO 11004KT 10SM CLR 09/07 A2996 RMK AO2 SLP146 T00890072 PNO $
PAKI 160656Z AUTO 12006KT 10SM OVC047 10/07 A2995 RMK AO2 SLP142 T01000072 PNO $
PAKI 160556Z AUTO 11007KT 10SM OVC060 11/07 A2994 RMK AO2 SLP139 6//// T01060072 10122 20106 53009 PNO $
PAKI 160456Z AUTO 12010KT 10SM FEW041 OVC055 11/06 A2992 RMK AO2 SLP135 T01110061 PNO $
PAKI 160356Z AUTO 12009KT 10SM FEW030 BKN060 11/06 A2992 RMK AO2 SLP133 T01110056 PNO $
PAKI 160256Z AUTO 10010KT 10SM FEW030 OVC055 12/06 A2991 RMK AO2 SLP130 6//// T01170056 53006 PNO $
PAKI 160156Z AUTO 12012KT 10SM SCT028 OVC055 12/06 A2990 RMK AO2 SLP128 T01170061 PNO $
PAKI 160056Z AUTO 10014KT 10SM BKN026 OVC033 11/06 A2989 RMK AO2 SLP125 T01110061 PNO $
PAKI 160042Z AUTO 11014KT 10SM BKN028 BKN033 12/06 A2989 RMK AO2 PNO $
PAKI 160003Z AUTO 11015KT 10SM BKN031 11/05 A2989 RMK AO2 PNO $
PAKI 152356Z AUTO 10015KT 10SM BKN029 11/06 A2989 RMK AO2 SLP124 6//// T01110056 10122 20089 53009 PNO $
PAKI 152256Z AUTO 11018G21KT 10SM BKN029 OVC100 12/06 A2988 RMK AO2 SLP121 T01170056 PNO $
PAKI 152230Z AUTO 10016KT 10SM FEW019 BKN029 12/06 A2988 RMK AO2 PNO $
PAKI 152217Z AUTO 12014KT 10SM SCT025 BKN030 11/07 A2988 RMK AO2 PNO $
PAKI 152208Z AUTO 12014KT 10SM FEW016 BKN023 11/07 A2988 RMK AO2 PNO $
PAKI 152156Z AUTO 12015G20KT 10SM SCT025 BKN032 BKN090 11/06 A2987 RMK AO2 SLP117 T01110061 PNO $
PAKI 152123Z AUTO 12014KT 10SM FEW015 BKN036 OVC080 11/08 A2987 RMK AO2 PNO $
PAKI 152109Z AUTO 12016KT 10SM FEW013 BKN028 OVC038 09/08 A2986 RMK AO2 PNO $
PAKI 152056Z AUTO 10015G21KT 10SM FEW021 BKN033 OVC045 09/07 A2986 RMK AO2 SLP114 6//// T00940072 51015 PNO $
PAKI 152033Z AUTO 10016G20KT 10SM FEW020 SCT027 OVC033 10/07 A2986 RMK AO2 PNO $
PAKI 152026Z AUTO 10012KT 10SM FEW020 BKN028 OVC035 09/07 A2986 RMK AO2 PNO $
PAKI 152006Z AUTO 10015KT 10SM FEW018 SCT024 OVC032 10/07 A2985 RMK AO2 PNO $
PAKI 151956Z AUTO 10013KT 10SM SCT023 BKN029 OVC034 10/07 A2985 RMK AO2 RAB12E48 SLP110 T01000072 PNO $
PAKI 151913Z AUTO 07014KT 10SM -RA BKN018 BKN023 OVC033 09/07 A2984 RMK AO2 RAB12 PNO $
PAKI 151856Z AUTO 09013KT 10SM BKN033 OVC042 09/07 A2984 RMK AO2 SLP106 T00940067 PNO $
PAKI 151847Z AUTO 08015KT 10SM FEW026 BKN033 OVC042 09/07 A2984 RMK AO2 PNO $
PAKI 151756Z AUTO 11014KT 10SM SCT018 BKN023 OVC046 09/07 A2982 RMK AO2 SLP099 6//// T00890067 10094 20083 53011 PNO $
PAKI 151727Z AUTO 09018G21KT 10SM BKN016 09/07 A2981 RMK AO2 PNO $
PAKI 151656Z AUTO 10012KT 10SM SCT030 08/07 A2980 RMK AO2 SLP092 T00830072 PNO $
PAKI 151630Z AUTO 11014KT 10SM SCT014 BKN032 08/07 A2979 RMK AO2 PNO $
PAKI 151622Z AUTO 10013KT 10SM BKN014 OVC034 09/07 A2979 RMK AO2 PNO $
PAKI 151556Z AUTO 10013KT 10SM FEW014 BKN038 OVC047 08/07 A2979 RMK AO2 RAE1458 SLP089 T00830067 PNO $
PAKI 151552Z AUTO 10015KT 10SM SCT014 BKN036 OVC047 08/07 A2979 RMK AO2 RAE1458 PNO $
PAKI 151536Z AUTO 11013KT 10SM BKN014 OVC049 08/07 A2978 RMK AO2 RAE1458 PNO $
PAKI 151456Z AUTO 10012KT 10SM -RA BKN018 OVC027 08/07 A2978 RMK AO2 RAB18 SLP085 6//// T00830067 53005 PNO $
PAKI 151449Z AUTO 10013KT 10SM -RA BKN018 BKN027 OVC033 08/07 A2978 RMK AO2 RAB18 PNO $